createdAt,value
2019-03-31T00:02:37.010Z,7.31
2019-03-31T00:05:11.436Z,7.28
2019-03-31T00:07:46.196Z,7.25
2019-03-31T00:10:20.254Z,7.18
2019-03-31T00:12:54.996Z,7.24
2019-03-31T00:15:30.019Z,7.20
2019-03-31T00:18:04.333Z,7.07
2019-03-31T00:20:38.817Z,6.98
2019-03-31T00:23:13.704Z,7.06
2019-03-31T00:26:01.590Z,6.90
2019-03-31T00:28:53.745Z,6.87
2019-03-31T00:31:27.868Z,6.84
2019-03-31T00:34:02.560Z,6.87
2019-03-31T00:36:37.079Z,6.78
2019-03-31T00:39:12.969Z,6.76
2019-03-31T00:41:47.023Z,6.85
2019-03-31T00:44:21.477Z,6.78
2019-03-31T00:46:56.303Z,6.81
2019-03-31T00:49:41.987Z,6.83
2019-03-31T00:52:15.849Z,6.76
2019-03-31T00:54:50.359Z,6.86
2019-03-31T00:57:34.285Z,6.97
2019-03-31T01:00:10.379Z,7.05
2019-03-31T01:03:05.905Z,7.16
2019-03-31T01:05:41.568Z,7.10
2019-03-31T01:08:15.746Z,7.02
2019-03-31T01:11:01.206Z,7.11
2019-03-31T01:13:35.920Z,7.17
2019-03-31T01:16:12.706Z,7.11
2019-03-31T01:18:46.889Z,7.16
2019-03-31T01:21:21.777Z,7.08
2019-03-31T01:23:56.188Z,7.08
2019-03-31T01:26:39.585Z,7.24
2019-03-31T01:29:15.093Z,7.15
2019-03-31T01:31:50.942Z,7.06
2019-03-31T01:34:34.530Z,7.06
2019-03-31T01:37:25.876Z,7.07
2019-03-31T01:40:02.633Z,6.94
2019-03-31T01:42:38.516Z,7.01
2019-03-31T01:45:13.020Z,7.02
2019-03-31T01:47:57.741Z,7.10
2019-03-31T01:50:31.838Z,7.15
2019-03-31T01:53:05.639Z,7.21
2019-03-31T01:55:40.871Z,7.33
2019-03-31T01:58:15.245Z,7.38
2019-03-31T02:00:53.661Z,7.42
2019-03-31T02:03:28.747Z,7.45
2019-03-31T02:06:02.733Z,7.41
2019-03-31T02:08:37.401Z,7.48
2019-03-31T02:11:21.328Z,7.55
2019-03-31T02:13:55.693Z,7.47
2019-03-31T02:16:30.895Z,7.50
2019-03-31T02:19:06.611Z,7.37
2019-03-31T02:21:42.214Z,7.28
2019-03-31T02:24:25.798Z,7.37
2019-03-31T02:26:59.929Z,7.37
2019-03-31T02:29:34.668Z,7.48
2019-03-31T02:32:23.204Z,7.44
2019-03-31T02:34:45.806Z,7.43
2019-03-31T02:37:21.168Z,7.45
2019-03-31T02:39:55.015Z,7.43
2019-03-31T02:42:38.793Z,7.49
2019-03-31T02:45:12.877Z,7.43
2019-03-31T02:48:00.741Z,7.61
2019-03-31T02:50:50.501Z,7.68
2019-03-31T02:53:24.712Z,7.61
2019-03-31T02:55:59.641Z,7.56
2019-03-31T02:58:33.516Z,7.55
2019-03-31T03:01:08.778Z,7.49
2019-03-31T03:03:54.471Z,7.46
2019-03-31T03:06:32.159Z,7.45
2019-03-31T03:09:07.682Z,7.43
2019-03-31T03:11:45.799Z,7.49
2019-03-31T03:14:23.183Z,7.54
2019-03-31T03:16:58.571Z,7.56
2019-03-31T03:19:32.992Z,7.59
2019-03-31T03:22:07.770Z,7.63
2019-03-31T03:24:51.130Z,7.75
2019-03-31T03:27:26.088Z,7.71
2019-03-31T03:30:11.045Z,7.68
2019-03-31T03:33:12.240Z,7.62
2019-03-31T03:35:38.240Z,7.69
2019-03-31T03:38:12.968Z,7.58
2019-03-31T03:40:48.669Z,7.59
2019-03-31T03:43:24.070Z,7.54
2019-03-31T03:45:58.516Z,7.53
2019-03-31T03:48:33.596Z,7.55
2019-03-31T03:51:17.014Z,7.61
2019-03-31T03:53:51.724Z,7.63
2019-03-31T03:56:29.077Z,7.62
2019-03-31T03:59:11.769Z,7.62
2019-03-31T04:01:46.697Z,7.59
2019-03-31T04:04:21.850Z,7.57
2019-03-31T04:07:08.416Z,7.65
2019-03-31T04:09:43.176Z,7.63
2019-03-31T04:12:16.920Z,7.65
2019-03-31T04:14:51.639Z,7.72
2019-03-31T04:17:25.757Z,7.78
2019-03-31T04:20:00.661Z,7.77
2019-03-31T04:22:34.861Z,7.75
2019-03-31T04:25:08.829Z,7.74
2019-03-31T04:27:43.273Z,7.71
2019-03-31T04:30:17.985Z,7.81
2019-03-31T04:33:03.238Z,7.89
2019-03-31T04:46:23.154Z,7.63
2019-03-31T04:48:58.480Z,7.54
2019-03-31T04:51:44.114Z,7.59
2019-03-31T04:54:19.059Z,7.49
2019-03-31T04:56:53.327Z,7.49
2019-03-31T04:59:28.160Z,7.55
2019-03-31T05:02:02.992Z,7.52
2019-03-31T05:04:48.156Z,7.53
2019-03-31T05:07:23.194Z,7.50
2019-03-31T05:09:58.136Z,7.41
2019-03-31T05:12:32.903Z,7.39
2019-03-31T05:15:15.945Z,7.45
2019-03-31T05:17:59.902Z,7.47
2019-03-31T05:20:34.117Z,7.37
2019-03-31T05:23:17.173Z,7.56
2019-03-31T05:25:52.174Z,7.57
2019-03-31T05:28:44.164Z,7.65
2019-03-31T05:31:20.820Z,7.55
2019-03-31T05:34:18.491Z,7.65
2019-03-31T05:36:43.141Z,7.68
2019-03-31T05:39:28.214Z,7.68
2019-03-31T05:42:02.306Z,7.51
2019-03-31T05:44:36.519Z,7.53
2019-03-31T05:47:20.875Z,7.68
2019-03-31T05:49:55.278Z,7.57
2019-03-31T05:52:30.132Z,7.54
2019-03-31T05:55:12.964Z,7.59
2019-03-31T05:57:58.772Z,7.57
2019-03-31T06:00:42.670Z,7.53
2019-03-31T06:03:32.411Z,7.52
2019-03-31T06:06:06.511Z,7.44
2019-03-31T06:08:41.350Z,7.55
2019-03-31T06:11:16.407Z,7.63
2019-03-31T06:13:50.837Z,7.66
2019-03-31T06:16:34.301Z,7.62
2019-03-31T06:19:09.094Z,7.57
2019-03-31T06:21:52.426Z,7.58
2019-03-31T06:24:26.901Z,7.58
2019-03-31T06:27:01.947Z,7.55
2019-03-31T06:29:36.875Z,7.56
2019-03-31T06:32:11.888Z,7.40
2019-03-31T06:34:47.816Z,7.44
2019-03-31T06:37:44.156Z,7.57
2019-03-31T06:40:18.622Z,7.42
2019-03-31T06:43:01.969Z,7.49
2019-03-31T06:45:36.472Z,7.43
2019-03-31T06:48:21.822Z,7.52
2019-03-31T06:50:56.969Z,7.50
2019-03-31T06:53:40.161Z,7.49
2019-03-31T06:56:14.834Z,7.44
2019-03-31T06:58:57.915Z,7.57
2019-03-31T07:01:48.312Z,7.68
2019-03-31T07:04:31.845Z,7.56
2019-03-31T07:07:06.166Z,7.38
2019-03-31T07:09:49.897Z,7.55
2019-03-31T07:12:24.014Z,7.61
2019-03-31T07:15:00.346Z,7.65
2019-03-31T07:17:34.875Z,7.62
2019-03-31T07:20:21.630Z,7.59
2019-03-31T07:23:11.190Z,7.73
2019-03-31T07:25:46.324Z,7.78
2019-03-31T07:28:30.468Z,8.02
2019-03-31T07:31:17.479Z,8.26
2019-03-31T07:34:06.934Z,8.40
2019-03-31T07:36:42.408Z,8.32
2019-03-31T07:39:16.160Z,8.30
2019-03-31T07:41:52.478Z,8.31
2019-03-31T07:44:27.617Z,8.31
2019-03-31T07:47:01.670Z,8.11
2019-03-31T07:49:37.513Z,8.15
2019-03-31T07:52:24.563Z,8.22
2019-03-31T07:55:13.723Z,8.20
2019-03-31T07:57:48.698Z,8.22
2019-03-31T08:00:23.116Z,8.28
2019-03-31T08:03:00.252Z,8.22
2019-03-31T08:05:44.141Z,8.22
2019-03-31T08:08:19.009Z,8.29
2019-03-31T08:10:53.051Z,8.35
2019-03-31T08:13:27.464Z,8.67
2019-03-31T08:16:14.099Z,8.82
2019-03-31T08:18:48.903Z,8.90
2019-03-31T08:21:23.016Z,8.92
2019-03-31T08:23:57.439Z,8.92
2019-03-31T08:26:32.378Z,8.75
2019-03-31T08:29:26.807Z,8.62
2019-03-31T08:32:01.294Z,8.56
2019-03-31T08:34:35.765Z,8.48
2019-03-31T08:37:09.961Z,8.44
2019-03-31T08:39:53.711Z,8.35
2019-03-31T08:42:29.248Z,8.33
2019-03-31T08:48:31.587Z,8.60
2019-03-31T08:51:06.490Z,8.72
2019-03-31T08:53:58.935Z,8.73
2019-03-31T08:56:33.810Z,8.89
2019-03-31T08:59:08.691Z,9.20
2019-03-31T09:01:54.960Z,9.40
2019-03-31T09:04:29.646Z,9.51
2019-03-31T09:07:21.199Z,9.76
2019-03-31T09:09:55.331Z,9.71
2019-03-31T09:12:30.346Z,9.80
2019-03-31T09:15:05.986Z,9.62
2019-03-31T09:17:54.376Z,9.57
2019-03-31T09:20:30.644Z,9.38
2019-03-31T09:23:05.164Z,9.55
2019-03-31T09:25:40.794Z,9.55
2019-03-31T09:28:16.356Z,9.50
2019-03-31T09:31:08.265Z,9.55
2019-03-31T09:33:42.642Z,9.66
2019-03-31T09:36:29.924Z,9.63
2019-03-31T09:39:07.067Z,9.39
2019-03-31T09:42:02.382Z,9.24
2019-03-31T09:44:36.500Z,9.38
2019-03-31T09:47:22.096Z,9.75
2019-03-31T09:49:57.164Z,9.71
2019-03-31T09:52:31.271Z,9.66
2019-03-31T09:55:05.751Z,9.85
2019-03-31T09:57:40.193Z,10.03
2019-03-31T10:00:14.378Z,10.06
2019-03-31T10:03:01.222Z,10.24
2019-03-31T10:05:50.828Z,10.36
2019-03-31T10:08:25.340Z,10.32
2019-03-31T10:11:02.717Z,9.97
2019-03-31T10:13:36.127Z,9.53
2019-03-31T10:16:10.725Z,9.19
2019-03-31T10:18:46.237Z,9.02
2019-03-31T10:21:21.972Z,8.85
2019-03-31T10:23:56.869Z,8.98
2019-03-31T10:26:32.586Z,9.27
2019-03-31T10:29:08.717Z,9.50
2019-03-31T10:31:43.331Z,9.67
2019-03-31T10:34:28.801Z,9.94
2019-03-31T10:37:14.918Z,10.16
2019-03-31T10:39:49.729Z,10.33
2019-03-31T10:42:35.813Z,10.48
2019-03-31T10:45:10.314Z,10.24
2019-03-31T10:47:56.465Z,10.53
2019-03-31T10:50:49.803Z,10.73
2019-03-31T10:53:23.869Z,10.83
2019-03-31T10:55:57.611Z,10.72
2019-03-31T10:58:53.232Z,9.96
2019-03-31T11:01:45.028Z,9.90
2019-03-31T11:04:19.571Z,9.94
2019-03-31T11:06:59.519Z,10.58
2019-03-31T11:09:41.569Z,10.88
2019-03-31T11:12:16.487Z,10.78
2019-03-31T11:14:50.755Z,10.80
2019-03-31T11:17:37.347Z,10.54
2019-03-31T11:20:12.714Z,10.25
2019-03-31T11:22:52.660Z,10.30
2019-03-31T11:25:29.458Z,10.37
2019-03-31T11:28:15.304Z,10.54
2019-03-31T11:31:00.285Z,10.79
2019-03-31T11:33:35.459Z,11.02
2019-03-31T11:36:09.798Z,11.02
2019-03-31T11:38:44.001Z,11.27
2019-03-31T11:51:53.893Z,11.78
2019-03-31T11:54:40.278Z,11.71
2019-03-31T11:57:17.543Z,12.17
2019-03-31T11:59:50.345Z,12.20
2019-03-31T12:02:27.748Z,12.18
2019-03-31T12:05:20.829Z,11.96
2019-03-31T12:07:55.293Z,11.05
2019-03-31T12:10:40.985Z,10.48
2019-03-31T12:13:30.961Z,10.23
2019-03-31T12:29:34.528Z,12.50
2019-03-31T12:32:13.332Z,12.19
2019-03-31T12:34:48.727Z,11.91
2019-03-31T12:37:23.977Z,11.42
2019-03-31T12:39:58.823Z,11.42
2019-03-31T12:42:33.305Z,12.12
2019-03-31T12:45:11.447Z,11.90
2019-03-31T12:47:45.868Z,11.06
2019-03-31T12:50:46.195Z,10.30
2019-03-31T12:53:21.545Z,10.21
2019-03-31T12:56:13.985Z,10.38
2019-03-31T12:58:49.309Z,11.02
2019-03-31T13:01:23.420Z,11.63
2019-03-31T13:04:02.293Z,12.20
2019-03-31T13:06:36.756Z,12.47
2019-03-31T13:09:10.524Z,12.71
2019-03-31T13:11:45.160Z,12.91
2019-03-31T13:14:54.211Z,12.98
2019-03-31T13:18:07.640Z,12.17
2019-03-31T13:20:43.028Z,11.90
2019-03-31T13:23:17.250Z,12.31
2019-03-31T13:25:51.347Z,12.79
2019-03-31T13:39:09.031Z,11.29
2019-03-31T13:41:47.048Z,11.63
2019-03-31T13:44:20.558Z,12.07
2019-03-31T13:46:55.393Z,12.46
2019-03-31T13:49:37.990Z,12.10
2019-03-31T13:52:13.025Z,11.60
2019-03-31T13:54:47.734Z,11.32
2019-03-31T13:57:22.880Z,11.61
2019-03-31T13:59:57.554Z,12.24
2019-03-31T14:02:40.870Z,12.38
2019-03-31T14:05:15.273Z,12.51
2019-03-31T14:08:05.465Z,12.85
2019-03-31T14:10:39.621Z,12.45
2019-03-31T14:13:22.929Z,12.06
2019-03-31T14:15:56.692Z,11.21
2019-03-31T14:18:31.127Z,11.29
2019-03-31T14:21:14.272Z,11.49
2019-03-31T14:23:56.790Z,11.79
2019-03-31T14:26:39.777Z,11.63
2019-03-31T14:29:22.865Z,11.51
2019-03-31T14:32:05.747Z,11.80
2019-03-31T14:34:40.615Z,11.88
2019-03-31T14:37:24.152Z,11.86
2019-03-31T14:39:57.896Z,11.96
2019-03-31T14:42:32.509Z,11.92
2019-03-31T14:45:31.057Z,11.90
2019-03-31T14:48:05.007Z,12.00
2019-03-31T14:50:40.088Z,11.79
2019-03-31T14:53:13.781Z,11.77
2019-03-31T14:55:47.851Z,11.40
2019-03-31T14:58:21.893Z,11.17
2019-03-31T15:01:05.281Z,10.69
2019-03-31T15:03:39.852Z,10.87
2019-03-31T15:06:22.423Z,11.12
2019-03-31T15:09:07.589Z,10.99
2019-03-31T15:11:41.730Z,10.75
2019-03-31T15:14:16.917Z,10.84
2019-03-31T15:16:51.958Z,10.79
2019-03-31T15:19:26.027Z,10.91
2019-03-31T15:22:00.154Z,10.67
2019-03-31T15:24:43.811Z,10.92
2019-03-31T15:27:19.274Z,10.95
2019-03-31T15:29:53.520Z,10.68
2019-03-31T15:32:27.497Z,10.50
2019-03-31T15:35:01.247Z,10.09
2019-03-31T15:37:34.929Z,10.25
2019-03-31T15:40:09.509Z,10.22
2019-03-31T15:42:43.406Z,10.14
2019-03-31T15:45:17.365Z,9.94
2019-03-31T15:47:51.379Z,10.00
2019-03-31T15:50:34.551Z,9.84
2019-03-31T15:53:21.166Z,9.73
2019-03-31T15:55:56.237Z,9.57
2019-03-31T15:58:30.333Z,9.65
2019-03-31T16:01:14.804Z,9.48
2019-03-31T16:03:57.899Z,9.43
2019-03-31T16:06:40.836Z,9.48
2019-03-31T16:09:24.072Z,9.40
2019-03-31T16:11:58.591Z,9.44
2019-03-31T16:14:32.445Z,9.57
2019-03-31T16:17:14.898Z,9.55
2019-03-31T16:19:49.059Z,9.50
2019-03-31T16:23:04.890Z,9.52
2019-03-31T16:25:41.580Z,9.54
2019-03-31T16:28:16.079Z,9.42
2019-03-31T16:31:08.085Z,9.41
2019-03-31T16:33:59.038Z,9.41
2019-03-31T16:36:33.495Z,9.39
2019-03-31T16:39:36.539Z,9.35
2019-03-31T16:41:58.697Z,9.19
2019-03-31T16:44:32.754Z,9.15
2019-03-31T16:47:29.117Z,9.06
2019-03-31T16:50:03.389Z,9.08
2019-03-31T16:52:52.470Z,9.17
2019-03-31T16:55:44.060Z,9.24
2019-03-31T16:58:18.517Z,9.14
2019-03-31T17:00:51.688Z,8.99
2019-03-31T17:03:25.843Z,8.89
2019-03-31T17:06:13.689Z,8.74
2019-03-31T17:09:09.811Z,8.73
2019-03-31T17:11:44.073Z,8.57
2019-03-31T17:14:17.882Z,8.57
2019-03-31T17:16:51.122Z,8.65
2019-03-31T17:19:24.571Z,8.60
2019-03-31T17:22:00.033Z,8.56
2019-03-31T17:24:34.211Z,8.31
2019-03-31T17:27:25.994Z,8.09
2019-03-31T17:30:17.677Z,8.01
2019-03-31T17:33:03.232Z,7.88
2019-03-31T17:35:50.194Z,7.76
2019-03-31T17:38:24.706Z,7.59
2019-03-31T17:40:58.531Z,7.49
2019-03-31T17:43:32.752Z,7.42
2019-03-31T17:46:18.836Z,7.41
2019-03-31T17:49:11.795Z,7.34
2019-03-31T17:51:57.093Z,7.33
2019-03-31T17:54:41.612Z,7.28
2019-03-31T17:57:15.292Z,7.20
2019-03-31T17:59:49.251Z,7.11
2019-03-31T18:02:24.319Z,7.05
2019-03-31T18:04:57.885Z,6.97
2019-03-31T18:07:31.758Z,6.92
2019-03-31T18:10:21.142Z,6.90
2019-03-31T18:13:14.979Z,6.81
2019-03-31T18:15:49.126Z,6.67
2019-03-31T18:18:23.444Z,6.58
2019-03-31T18:21:14.403Z,6.61
2019-03-31T18:23:47.764Z,6.50
2019-03-31T18:26:22.029Z,6.45
2019-03-31T18:29:07.654Z,6.50
2019-03-31T18:31:52.356Z,6.40
2019-03-31T18:34:27.548Z,6.34
2019-03-31T18:37:01.233Z,6.31
2019-03-31T18:39:36.828Z,6.24
2019-03-31T18:42:21.341Z,6.27
2019-03-31T18:45:07.668Z,6.19
2019-03-31T18:47:41.198Z,6.12
2019-03-31T18:50:15.446Z,6.11
2019-03-31T18:53:16.551Z,6.08
2019-03-31T18:56:12.064Z,5.91
2019-03-31T18:59:29.809Z,5.90
2019-03-31T19:02:35.066Z,5.83
2019-03-31T19:05:26.913Z,5.76
2019-03-31T19:08:38.278Z,5.73
2019-03-31T19:11:29.984Z,5.58
2019-03-31T19:14:26.011Z,5.46
2019-03-31T19:17:13.360Z,5.36
2019-03-31T19:20:28.067Z,5.32
2019-03-31T19:23:13.569Z,5.24
2019-03-31T19:26:26.778Z,5.16
2019-03-31T19:29:07.737Z,5.09
2019-03-31T19:31:58.890Z,5.04
2019-03-31T19:34:55.603Z,4.93
2019-03-31T19:37:53.690Z,4.95
2019-03-31T19:41:04.422Z,4.92
2019-03-31T19:44:21.227Z,4.81
2019-03-31T19:47:18.177Z,4.74
2019-03-31T19:50:28.480Z,4.73
2019-03-31T19:53:33.471Z,4.68
2019-03-31T19:56:28.980Z,4.68
2019-03-31T19:59:30.034Z,4.66
2019-03-31T20:02:25.083Z,4.58
2019-03-31T20:05:25.711Z,4.56
2019-03-31T20:08:29.867Z,4.52
2019-03-31T20:11:22.198Z,4.40
2019-03-31T20:14:16.402Z,4.39
2019-03-31T20:17:18.015Z,4.40
2019-03-31T20:20:07.843Z,4.46
2019-03-31T20:23:24.902Z,4.39
2019-03-31T20:26:54.257Z,4.44
2019-03-31T20:29:55.492Z,4.49
2019-03-31T20:33:08.155Z,4.50
2019-03-31T20:36:00.900Z,4.45
2019-03-31T20:38:49.311Z,4.41
2019-03-31T20:41:43.138Z,4.41
2019-03-31T20:44:20.980Z,4.38
2019-03-31T20:46:55.676Z,4.36
2019-03-31T20:49:47.159Z,4.37
2019-03-31T20:52:37.692Z,4.36
2019-03-31T20:55:16.543Z,4.30
2019-03-31T20:57:48.006Z,4.26
2019-03-31T21:00:21.746Z,4.24
2019-03-31T21:03:06.809Z,4.32
2019-03-31T21:05:55.746Z,4.25
2019-03-31T21:08:35.965Z,4.23
2019-03-31T21:11:20.622Z,4.25
2019-03-31T21:13:56.973Z,4.19
2019-03-31T21:16:42.146Z,4.20
2019-03-31T21:19:33.867Z,4.08
2019-03-31T21:22:07.540Z,4.02
2019-03-31T21:24:47.378Z,4.02
2019-03-31T21:27:20.880Z,3.99
2019-03-31T21:29:54.514Z,3.94
2019-03-31T21:32:28.089Z,3.91
2019-03-31T21:35:02.426Z,3.83
2019-03-31T21:37:36.079Z,3.77
2019-03-31T21:40:10.194Z,3.75
2019-03-31T21:42:54.868Z,3.73
2019-03-31T21:45:30.152Z,3.64
2019-03-31T21:48:03.864Z,3.65
2019-03-31T21:50:37.337Z,3.59
2019-03-31T21:53:11.172Z,3.54
2019-03-31T21:55:57.471Z,3.55
2019-03-31T21:58:31.589Z,3.52
2019-03-31T22:01:05.341Z,3.55
2019-03-31T22:03:57.918Z,3.55
2019-03-31T22:06:48.940Z,3.50
2019-03-31T22:09:22.846Z,3.44
2019-03-31T22:12:11.624Z,3.44
2019-03-31T22:15:05.275Z,3.43
2019-03-31T22:17:50.937Z,3.41
2019-03-31T22:20:25.237Z,3.36
2019-03-31T22:22:59.088Z,3.34
2019-03-31T22:25:33.557Z,3.30
2019-03-31T22:28:06.989Z,3.28
2019-03-31T22:30:40.851Z,3.26
2019-03-31T22:33:14.414Z,3.21
2019-03-31T22:36:06.323Z,3.17
2019-03-31T22:39:00.456Z,3.14
2019-03-31T22:41:35.233Z,3.02
2019-03-31T22:44:27.937Z,3.08
2019-03-31T22:47:02.306Z,2.97
2019-03-31T22:49:49.084Z,3.01
2019-03-31T22:52:23.574Z,2.96
2019-03-31T22:54:57.438Z,2.95
2019-03-31T22:57:51.031Z,2.92
2019-03-31T23:00:28.765Z,2.81
2019-03-31T23:03:02.141Z,2.76
2019-03-31T23:05:48.720Z,2.92
2019-03-31T23:08:22.782Z,2.83
2019-03-31T23:10:56.873Z,2.71
2019-03-31T23:13:30.431Z,2.66
2019-03-31T23:16:04.213Z,2.66
2019-03-31T23:18:38.648Z,2.61
2019-03-31T23:21:13.215Z,2.62
2019-03-31T23:24:04.113Z,2.57
2019-03-31T23:26:37.740Z,2.44
2019-03-31T23:29:11.397Z,2.32
2019-03-31T23:31:44.886Z,2.33
2019-03-31T23:34:18.675Z,2.39
2019-03-31T23:36:52.768Z,2.31
2019-03-31T23:39:38.505Z,2.22
2019-03-31T23:42:12.829Z,2.03
2019-03-31T23:44:46.723Z,2.01
2019-03-31T23:47:39.350Z,2.05
2019-03-31T23:50:13.295Z,1.94
2019-03-31T23:52:47.451Z,1.77
2019-03-31T23:55:21.374Z,1.75
2019-03-31T23:57:55.792Z,1.72
